Time;durP1;ratioP1;P1;durP2;ratioP2;P2;SDS_P1;SDS_P2;PMS_P1;PMS_P2;Temp;Humidity;BMP_temperature;BMP_pressure;BME280_temperature;BME280_humidity;BME280_pressure;Samples;Min_cycle;Max_cycle;Signal;HPM_P1;HPM_P2
2021/07/12 00:01:19;;;;;;;;;;;14.50;1.00;;;;;;5051076;28;20269;-59
2021/07/12 00:03:44;;;;;;;;;;;14.50;1.00;;;;;;5049365;28;20023;-61
2021/07/12 00:06:10;;;;;;;;;;;14.50;1.00;;;;;;5050805;28;19909;-59
2021/07/12 00:08:36;;;;;;;;;;;14.40;1.00;;;;;;5049814;28;19909;-58
2021/07/12 00:11:01;;;;;;;;;;;14.40;1.00;;;;;;5050281;28;19919;-60
2021/07/12 00:13:27;;;;;;;;;;;14.40;1.00;;;;;;5050091;28;20381;-59
2021/07/12 00:15:52;;;;;;;;;;;14.40;1.00;;;;;;5050803;28;19913;-60
2021/07/12 00:18:17;;;;;;;;;;;14.40;1.00;;;;;;5048699;28;20015;-60
2021/07/12 00:20:43;;;;;;;;;;;14.30;1.00;;;;;;5050449;28;19916;-59
2021/07/12 00:23:08;;;;;;;;;;;14.30;1.00;;;;;;5050265;28;19974;-56
2021/07/12 00:25:34;;;;;;;;;;;14.30;1.00;;;;;;5050498;28;19912;-59
2021/07/12 00:28:00;;;;;;;;;;;14.20;1.00;;;;;;5048824;28;20226;-60
2021/07/12 00:30:26;;;;;;;;;;;14.20;1.00;;;;;;5050777;28;20008;-61
2021/07/12 00:32:53;;;;;;;;;;;14.20;1.00;;;;;;5049071;28;19923;-61
2021/07/12 00:35:19;;;;;;;;;;;14.10;1.00;;;;;;5050917;28;20266;-60
2021/07/12 00:37:45;;;;;;;;;;;14.10;1.00;;;;;;5049472;28;19920;-61
2021/07/12 00:40:12;;;;;;;;;;;14.10;1.00;;;;;;5050896;28;20231;-60
2021/07/12 00:42:38;;;;;;;;;;;14.10;1.00;;;;;;5049571;28;19954;-59
2021/07/12 00:45:05;;;;;;;;;;;14.00;1.00;;;;;;5050486;28;20261;-60
2021/07/12 00:47:31;;;;;;;;;;;14.00;1.00;;;;;;5048354;28;20356;-59
2021/07/12 00:49:56;;;;;;;;;;;14.00;1.00;;;;;;5050809;28;20004;-60
2021/07/12 00:52:22;;;;;;;;;;;14.00;1.00;;;;;;5051076;28;20007;-61
2021/07/12 00:54:47;;;;;;;;;;;14.00;1.00;;;;;;5050894;28;19909;-60
2021/07/12 00:57:13;;;;;;;;;;;14.00;1.00;;;;;;5049217;28;19924;-62
2021/07/12 00:59:38;;;;;;;;;;;14.00;1.00;;;;;;5050489;28;19973;-60
2021/07/12 01:02:05;;;;;;;;;;;13.90;1.00;;;;;;5045238;28;19919;-60
2021/07/12 01:04:30;;;;;;;;;;;13.90;1.00;;;;;;5049453;28;19913;-60
2021/07/12 01:06:56;;;;;;;;;;;13.90;1.00;;;;;;5049100;28;20269;-58
2021/07/12 01:09:21;;;;;;;;;;;13.90;1.00;;;;;;5048422;28;19918;-59
2021/07/12 01:12:05;;;;;;;;;;;13.90;1.00;;;;;;5048812;28;20330;-61
2021/07/12 01:14:48;;;;;;;;;;;13.80;1.00;;;;;;5049856;28;20361;-58
2021/07/12 01:17:17;;;;;;;;;;;13.90;1.00;;;;;;5048426;28;20020;-59
2021/07/12 01:19:49;;;;;;;;;;;13.90;1.00;;;;;;5048911;28;19947;-55
2021/07/12 01:22:21;;;;;;;;;;;13.90;1.00;;;;;;5048700;28;19990;-58
2021/07/12 01:25:06;;;;;;;;;;;13.90;1.00;;;;;;5048683;28;19939;-58
2021/07/12 01:27:32;;;;;;;;;;;14.00;1.00;;;;;;5047796;28;19909;-59
2021/07/12 01:30:10;;;;;;;;;;;14.00;1.00;;;;;;5049021;28;19909;-60
2021/07/12 01:32:54;;;;;;;;;;;13.90;1.00;;;;;;5047750;28;20014;-60
2021/07/12 01:35:25;;;;;;;;;;;13.90;1.00;;;;;;5049263;28;19913;-62
2021/07/12 01:37:51;;;;;;;;;;;13.90;1.00;;;;;;5047973;28;20200;-59
2021/07/12 01:40:31;;;;;;;;;;;13.90;1.00;;;;;;5048945;28;20507;-59
2021/07/12 01:42:56;;;;;;;;;;;13.90;1.00;;;;;;5049309;28;19909;-59
2021/07/12 01:45:22;;;;;;;;;;;13.90;1.00;;;;;;5049220;28;19917;-60
2021/07/12 01:48:00;;;;;;;;;;;13.90;1.00;;;;;;5047206;28;20373;-59
2021/07/12 01:50:29;;;;;;;;;;;13.90;1.00;;;;;;5049564;28;19972;-60
2021/07/12 01:52:54;;;;;;;;;;;14.00;1.00;;;;;;5048581;28;20276;-56
2021/07/12 01:55:23;;;;;;;;;;;14.00;1.00;;;;;;5048925;28;20009;-56
2021/07/12 01:57:55;;;;;;;;;;;14.10;1.00;;;;;;5047173;28;19947;-60
2021/07/12 02:00:21;;;;;;;;;;;14.10;1.00;;;;;;5048486;28;19917;-59
2021/07/12 02:02:48;;;;;;;;;;;14.20;1.00;;;;;;5047684;28;19916;-57
2021/07/12 02:05:18;;;;;;;;;;;14.20;1.00;;;;;;5048605;28;19912;-58
2021/07/12 02:07:44;;;;;;;;;;;14.20;1.00;;;;;;5047821;28;20105;-59
2021/07/12 02:10:10;;;;;;;;;;;14.10;1.00;;;;;;5047594;28;20356;-64
2021/07/12 02:12:36;;;;;;;;;;;14.10;1.00;;;;;;5047867;28;20014;-59
2021/07/12 02:15:02;;;;;;;;;;;14.00;1.00;;;;;;5048689;28;19999;-59
2021/07/12 02:17:28;;;;;;;;;;;13.90;1.00;;;;;;5047056;28;19990;-59
2021/07/12 02:19:55;;;;;;;;;;;13.90;1.00;;;;;;5047833;28;20242;-60
2021/07/12 02:22:20;;;;;;;;;;;13.80;1.00;;;;;;5047857;28;19917;-62
2021/07/12 02:24:47;;;;;;;;;;;13.80;1.00;;;;;;5047594;28;19920;-58
2021/07/12 02:27:16;;;;;;;;;;;13.80;1.00;;;;;;5047288;28;19909;-59
2021/07/12 02:29:42;;;;;;;;;;;13.70;1.00;;;;;;5048623;28;19919;-61
2021/07/12 02:32:08;;;;;;;;;;;13.70;1.00;;;;;;5046962;28;20452;-59
2021/07/12 02:34:34;;;;;;;;;;;13.60;1.00;;;;;;5048269;28;19960;-59
2021/07/12 02:37:00;;;;;;;;;;;13.60;1.00;;;;;;5049736;28;19913;-58
2021/07/12 02:39:26;;;;;;;;;;;13.60;1.00;;;;;;5051186;28;20059;-60
2021/07/12 02:41:52;;;;;;;;;;;13.60;1.00;;;;;;5051973;28;19916;-60
2021/07/12 02:44:18;;;;;;;;;;;13.50;1.00;;;;;;5051784;28;19912;-58
2021/07/12 02:46:44;;;;;;;;;;;13.50;1.00;;;;;;5051764;28;19912;-61
2021/07/12 02:49:10;;;;;;;;;;;13.50;1.00;;;;;;5050153;28;19955;-59
2021/07/12 02:51:47;;;;;;;;;;;13.40;1.00;;;;;;5051589;28;19913;-59
2021/07/12 02:54:16;;;;;;;;;;;13.40;1.00;;;;;;5051842;28;20288;-59
2021/07/12 02:56:42;;;;;;;;;;;13.40;1.00;;;;;;5051125;28;19967;-57
2021/07/12 02:59:07;;;;;;;;;;;13.40;1.00;;;;;;5051160;28;19944;-60
2021/07/12 03:01:33;;;;;;;;;;;13.40;1.00;;;;;;5051419;28;19995;-60
2021/07/12 03:03:58;;;;;;;;;;;13.50;1.00;;;;;;5050617;28;19942;-58
2021/07/12 03:06:28;;;;;;;;;;;13.40;1.00;;;;;;5051338;28;19913;-60
2021/07/12 03:08:57;;;;;;;;;;;13.50;1.00;;;;;;5050260;28;19923;-60
2021/07/12 03:11:25;;;;;;;;;;;13.40;1.00;;;;;;5051148;28;20003;-60
2021/07/12 03:13:53;;;;;;;;;;;13.40;1.00;;;;;;5051407;28;20199;-61
2021/07/12 03:16:18;;;;;;;;;;;13.30;1.00;;;;;;5051677;28;20406;-61
2021/07/12 03:18:54;;;;;;;;;;;13.30;1.00;;;;;;5049325;28;19924;-61
2021/07/12 03:21:20;;;;;;;;;;;13.20;1.00;;;;;;5051819;28;19915;-59
2021/07/12 03:23:47;;;;;;;;;;;13.20;1.00;;;;;;5051912;28;19909;-59
2021/07/12 03:26:14;;;;;;;;;;;13.20;1.00;;;;;;5050974;28;19916;-60
2021/07/12 03:28:40;;;;;;;;;;;13.20;1.00;;;;;;5032488;28;20412;-60
2021/07/12 03:31:07;;;;;;;;;;;13.20;1.00;;;;;;5051136;28;19930;-60
2021/07/12 03:33:35;;;;;;;;;;;13.20;1.00;;;;;;5049535;28;19917;-60
2021/07/12 03:36:01;;;;;;;;;;;13.20;1.00;;;;;;5051357;28;19912;-61
2021/07/12 03:38:26;;;;;;;;;;;13.20;1.00;;;;;;5049935;28;19912;-61
2021/07/12 03:40:52;;;;;;;;;;;13.10;1.00;;;;;;5051117;28;19970;-60
2021/07/12 03:43:18;;;;;;;;;;;13.20;1.00;;;;;;5051052;28;19920;-61
2021/07/12 03:45:51;;;;;;;;;;;13.30;1.00;;;;;;5051320;28;19913;-61
2021/07/12 03:48:16;;;;;;;;;;;13.30;1.00;;;;;;5048300;28;19913;-59
2021/07/12 03:50:42;;;;;;;;;;;13.40;1.00;;;;;;5050887;28;19982;-61
2021/07/12 03:53:07;;;;;;;;;;;13.50;1.00;;;;;;5050738;28;19999;-59
2021/07/12 03:55:33;;;;;;;;;;;13.50;1.00;;;;;;5051305;28;20299;-61
2021/07/12 03:57:59;;;;;;;;;;;13.60;1.00;;;;;;5050289;28;19912;-62
2021/07/12 04:00:26;;;;;;;;;;;13.70;1.00;;;;;;5051515;28;19951;-62
2021/07/12 04:02:52;;;;;;;;;;;13.70;1.00;;;;;;5031987;28;19920;-60
2021/07/12 04:05:23;;;;;;;;;;;13.80;1.00;;;;;;5051807;28;19966;-61
2021/07/12 04:07:49;;;;;;;;;;;13.80;1.00;;;;;;5033372;28;20015;-61
2021/07/12 04:10:16;;;;;;;;;;;13.90;1.00;;;;;;5031077;28;19949;-61
2021/07/12 04:12:42;;;;;;;;;;;14.00;1.00;;;;;;5030779;28;19936;-62
2021/07/12 04:15:08;;;;;;;;;;;14.00;1.00;;;;;;5031013;28;20001;-62
2021/07/12 04:17:34;;;;;;;;;;;14.00;1.00;;;;;;5029471;28;20389;-61
2021/07/12 04:19:59;;;;;;;;;;;14.00;1.00;;;;;;5042052;28;19909;-60
2021/07/12 04:22:25;;;;;;;;;;;14.10;1.00;;;;;;5050552;28;20325;-61
2021/07/12 04:24:51;;;;;;;;;;;14.20;1.00;;;;;;5050768;28;19913;-60
2021/07/12 04:27:16;;;;;;;;;;;14.20;1.00;;;;;;5049892;28;19916;-63
2021/07/12 04:29:42;;;;;;;;;;;14.20;1.00;;;;;;5050322;28;19920;-60
2021/07/12 04:32:08;;;;;;;;;;;14.30;1.00;;;;;;5049326;28;19978;-61
2021/07/12 04:34:34;;;;;;;;;;;14.30;1.00;;;;;;5049598;28;20020;-61
2021/07/12 04:36:59;;;;;;;;;;;14.40;1.00;;;;;;5050071;28;20054;-60
2021/07/12 04:39:25;;;;;;;;;;;14.40;1.00;;;;;;5049870;28;19939;-62
2021/07/12 04:41:50;;;;;;;;;;;14.60;1.00;;;;;;5045004;28;20042;-62
2021/07/12 04:44:16;;;;;;;;;;;14.70;1.00;;;;;;5065050;28;19913;-62
2021/07/12 04:46:42;;;;;;;;;;;14.90;1.00;;;;;;5065487;28;19912;-60
2021/07/12 04:49:07;;;;;;;;;;;14.90;1.00;;;;;;5048362;28;19931;-61
2021/07/12 04:51:33;;;;;;;;;;;15.00;1.00;;;;;;5046182;28;20299;-61
2021/07/12 04:53:58;;;;;;;;;;;15.10;1.00;;;;;;5055812;28;20027;-60
2021/07/12 04:56:24;;;;;;;;;;;15.10;1.00;;;;;;5058879;28;20011;-59
2021/07/12 04:58:49;;;;;;;;;;;15.20;1.00;;;;;;5057845;28;19928;-60
2021/07/12 05:01:16;;;;;;;;;;;15.20;1.00;;;;;;5058236;28;19916;-60
2021/07/12 05:03:41;;;;;;;;;;;15.10;1.00;;;;;;5057509;28;19991;-60
2021/07/12 05:06:07;;;;;;;;;;;15.00;1.00;;;;;;5058498;28;20012;-60
2021/07/12 05:08:32;;;;;;;;;;;15.00;1.00;;;;;;5059041;28;19913;-60
2021/07/12 05:10:58;;;;;;;;;;;15.20;1.00;;;;;;5056648;28;19916;-61
2021/07/12 05:13:24;;;;;;;;;;;15.30;1.00;;;;;;5054779;28;20330;-61
2021/07/12 05:15:49;;;;;;;;;;;15.40;1.00;;;;;;5047174;28;19963;-60
2021/07/12 05:18:15;;;;;;;;;;;15.60;1.00;;;;;;5052846;28;19916;-60
2021/07/12 05:20:41;;;;;;;;;;;15.60;1.00;;;;;;5049633;28;20297;-61
2021/07/12 05:23:06;;;;;;;;;;;15.70;1.00;;;;;;5046448;28;19935;-63
2021/07/12 05:25:32;;;;;;;;;;;15.80;1.00;;;;;;5027983;28;19909;-63
2021/07/12 05:27:57;;;;;;;;;;;15.90;1.00;;;;;;5044400;28;19909;-59
2021/07/12 05:30:23;;;;;;;;;;;16.00;1.00;;;;;;5045989;28;20213;-62
2021/07/12 05:32:48;;;;;;;;;;;16.20;1.00;;;;;;5043694;28;20226;-61
2021/07/12 05:35:15;;;;;;;;;;;16.40;1.00;;;;;;5047888;28;20302;-62
2021/07/12 05:37:40;;;;;;;;;;;16.60;1.00;;;;;;5066246;28;20215;-65
2021/07/12 05:40:06;;;;;;;;;;;16.80;1.00;;;;;;5044625;28;19919;-63
2021/07/12 05:42:32;;;;;;;;;;;17.00;1.00;;;;;;5045568;28;19980;-60
2021/07/12 05:44:58;;;;;;;;;;;17.30;1.00;;;;;;5046977;28;19932;-61
2021/07/12 05:47:24;;;;;;;;;;;17.40;1.00;;;;;;5044804;28;20346;-61
2021/07/12 05:49:49;;;;;;;;;;;17.30;1.00;;;;;;5046238;28;19939;-64
2021/07/12 05:52:15;;;;;;;;;;;17.20;1.00;;;;;;5046268;28;19936;-63
2021/07/12 05:54:40;;;;;;;;;;;17.10;1.00;;;;;;5046215;28;20262;-63
2021/07/12 05:57:05;;;;;;;;;;;17.20;1.00;;;;;;5046049;28;19913;-64
2021/07/12 05:59:31;;;;;;;;;;;17.30;1.00;;;;;;5045501;28;19936;-61
2021/07/12 06:01:56;;;;;;;;;;;17.50;1.00;;;;;;5045927;28;19912;-60
2021/07/12 06:04:22;;;;;;;;;;;17.70;1.00;;;;;;5043840;28;20278;-62
2021/07/12 06:06:47;;;;;;;;;;;17.90;1.00;;;;;;5045668;28;19913;-61
2021/07/12 06:09:13;;;;;;;;;;;17.90;1.00;;;;;;5045400;28;19959;-62
2021/07/12 06:11:39;;;;;;;;;;;18.00;1.00;;;;;;5045962;28;19921;-61
2021/07/12 06:14:05;;;;;;;;;;;18.20;1.00;;;;;;5045692;28;19909;-62
2021/07/12 06:16:30;;;;;;;;;;;18.50;99.90;;;;;;5046670;28;19964;-60
2021/07/12 06:18:56;;;;;;;;;;;18.70;99.90;;;;;;5041787;28;20341;-57
2021/07/12 06:21:21;;;;;;;;;;;18.60;99.90;;;;;;5031237;28;20478;-61
2021/07/12 06:23:47;;;;;;;;;;;18.70;59.90;;;;;;5044897;28;19936;-60
2021/07/12 06:26:12;;;;;;;;;;;18.80;1.00;;;;;;5044818;28;19916;-63
2021/07/12 06:28:38;;;;;;;;;;;18.70;1.00;;;;;;5044827;28;20371;-62
2021/07/12 06:31:03;;;;;;;;;;;18.80;1.00;;;;;;5042380;28;20386;-59
2021/07/12 06:33:29;;;;;;;;;;;19.00;1.00;;;;;;5044861;28;19920;-58
2021/07/12 06:35:55;;;;;;;;;;;19.00;1.00;;;;;;5045789;28;19931;-59
2021/07/12 06:38:20;;;;;;;;;;;19.00;1.00;;;;;;5045681;28;19986;-60
2021/07/12 06:40:46;;;;;;;;;;;18.70;99.90;;;;;;5046251;28;19971;-62
2021/07/12 06:43:11;;;;;;;;;;;18.50;1.00;;;;;;5044384;28;19912;-61
2021/07/12 06:45:38;;;;;;;;;;;18.50;93.70;;;;;;5046143;28;20270;-61
2021/07/12 06:48:04;;;;;;;;;;;18.70;17.50;;;;;;5045416;28;20139;-61
2021/07/12 06:50:30;;;;;;;;;;;19.30;1.00;;;;;;5048653;28;19920;-63
2021/07/12 06:52:55;;;;;;;;;;;19.60;99.90;;;;;;5048103;28;19908;-60
2021/07/12 06:55:21;;;;;;;;;;;19.60;99.90;;;;;;5048981;28;20289;-61
2021/07/12 06:57:46;;;;;;;;;;;19.50;1.00;;;;;;5047306;28;19993;-59
2021/07/12 07:00:12;;;;;;;;;;;19.40;1.00;;;;;;5048268;28;19913;-61
2021/07/12 07:02:38;;;;;;;;;;;19.30;99.90;;;;;;5048027;28;19974;-55
2021/07/12 07:05:04;;;;;;;;;;;19.70;99.90;;;;;;5041807;28;20008;-59
2021/07/12 07:07:30;;;;;;;;;;;20.30;1.00;;;;;;5047231;28;19912;-59
2021/07/12 07:09:55;;;;;;;;;;;20.70;1.00;;;;;;5048017;28;19913;-59
2021/07/12 07:12:21;;;;;;;;;;;20.90;99.90;;;;;;5047421;28;20301;-61
2021/07/12 07:14:46;;;;;;;;;;;21.30;1.00;;;;;;5047725;28;19959;-61
2021/07/12 07:17:11;;;;;;;;;;;21.20;1.00;;;;;;5046794;28;20413;-59
2021/07/12 07:19:37;;;;;;;;;;;21.10;1.00;;;;;;5047076;28;19919;-58
2021/07/12 07:22:03;;;;;;;;;;;21.40;1.00;;;;;;5047951;28;19909;-62
2021/07/12 07:24:28;;;;;;;;;;;22.20;99.90;;;;;;5051648;28;20307;-61
2021/07/12 07:26:54;;;;;;;;;;;22.70;1.00;;;;;;5050352;28;20333;-59
2021/07/12 07:29:21;;;;;;;;;;;22.90;1.00;;;;;;5050804;28;19927;-63
2021/07/12 07:31:47;;;;;;;;;;;23.70;1.00;;;;;;5051113;28;20250;-60
2021/07/12 07:34:14;;;;;;;;;;;23.80;1.00;;;;;;5050603;28;19932;-61
2021/07/12 07:36:40;;;;;;;;;;;24.00;1.00;;;;;;5051452;28;20066;-63
2021/07/12 07:39:05;;;;;;;;;;;25.50;1.00;;;;;;5050520;28;20011;-61
2021/07/12 07:43:59;;;;;;;;;;;29.00;99.90;;;;;;5049264;28;19925;-61
2021/07/12 07:46:25;;;;;;;;;;;29.80;99.90;;;;;;5050930;28;19911;-62
2021/07/12 07:48:50;;;;;;;;;;;30.60;99.90;;;;;;5048637;28;20328;-62
2021/07/12 07:51:16;;;;;;;;;;;32.00;99.90;;;;;;5050998;28;19924;-62
2021/07/12 07:53:41;;;;;;;;;;;33.50;99.90;;;;;;5051025;28;20443;-62
2021/07/12 07:56:07;;;;;;;;;;;33.80;99.90;;;;;;5050609;28;19908;-62
2021/07/12 07:58:33;;;;;;;;;;;33.90;99.90;;;;;;5050279;28;19909;-62
2021/07/12 08:01:00;;;;;;;;;;;33.80;99.90;;;;;;5051075;28;20011;-61
2021/07/12 08:03:26;;;;;;;;;;;34.30;99.90;;;;;;5049395;28;20035;-62
2021/07/12 08:05:51;;;;;;;;;;;34.90;99.90;;;;;;5050734;28;20003;-62
2021/07/12 08:08:17;;;;;;;;;;;36.00;99.90;;;;;;5049683;28;20000;-62
2021/07/12 08:10:42;;;;;;;;;;;36.20;99.90;;;;;;5049893;28;19919;-62
2021/07/12 08:13:09;;;;;;;;;;;36.10;99.90;;;;;;5050083;28;20042;-62
2021/07/12 08:15:36;;;;;;;;;;;36.20;99.90;;;;;;5050979;28;19940;-62
2021/07/12 08:18:01;;;;;;;;;;;36.20;99.90;;;;;;5048257;28;20344;-62
2021/07/12 08:20:27;;;;;;;;;;;36.40;99.90;;;;;;5050761;28;20004;-62
2021/07/12 08:22:52;;;;;;;;;;;36.20;99.90;;;;;;5049876;28;19919;-61
2021/07/12 08:25:19;;;;;;;;;;;36.40;99.90;;;;;;5049046;28;20397;-61
2021/07/12 08:27:45;;;;;;;;;;;36.30;99.90;;;;;;5048936;28;19913;-62
2021/07/12 08:30:11;;;;;;;;;;;36.20;99.90;;;;;;5050349;28;20011;-62
2021/07/12 08:32:36;;;;;;;;;;;36.00;99.90;;;;;;5049284;28;20364;-62
2021/07/12 08:35:03;;;;;;;;;;;35.90;99.90;;;;;;5048270;28;19942;-62
2021/07/12 08:37:29;;;;;;;;;;;35.80;99.90;;;;;;5030067;28;19927;-62
2021/07/12 08:39:54;;;;;;;;;;;35.90;99.90;;;;;;5035653;28;19912;-62
2021/07/12 08:42:20;;;;;;;;;;;35.70;99.90;;;;;;5041341;28;20019;-62
2021/07/12 08:44:45;;;;;;;;;;;36.10;99.90;;;;;;5050962;28;19924;-62
2021/07/12 08:47:11;;;;;;;;;;;37.00;99.90;;;;;;5048690;28;20426;-63
2021/07/12 08:49:36;;;;;;;;;;;36.80;99.90;;;;;;5049482;28;20302;-62
2021/07/12 08:52:03;;;;;;;;;;;36.80;99.90;;;;;;5050277;28;19909;-63
2021/07/12 08:54:29;;;;;;;;;;;37.40;99.90;;;;;;5050282;28;20436;-61
2021/07/12 08:56:54;;;;;;;;;;;37.50;99.90;;;;;;5049203;28;20011;-63
2021/07/12 08:59:27;;;;;;;;;;;37.20;99.90;;;;;;5049164;28;19919;-62
2021/07/12 09:02:04;;;;;;;;;;;37.50;99.90;;;;;;5049658;28;20296;-62
2021/07/12 09:04:30;;;;;;;;;;;38.50;99.90;;;;;;5038872;28;19909;-62
2021/07/12 09:07:03;;;;;;;;;;;39.00;99.90;;;;;;5029624;28;19913;-62
2021/07/12 09:09:28;;;;;;;;;;;39.60;99.90;;;;;;5029728;28;19915;-63
2021/07/12 09:11:54;;;;;;;;;;;39.80;99.90;;;;;;5029984;28;20011;-63
2021/07/12 09:14:19;;;;;;;;;;;39.60;99.90;;;;;;5030297;28;19932;-63
2021/07/12 09:16:51;;;;;;;;;;;38.90;99.90;;;;;;5029195;28;19932;-63
2021/07/12 09:19:19;;;;;;;;;;;39.40;99.90;;;;;;5033993;28;19916;-63
2021/07/12 09:21:47;;;;;;;;;;;39.60;99.90;;;;;;5049748;28;19909;-63
2021/07/12 09:24:20;;;;;;;;;;;39.80;99.90;;;;;;5049807;28;20365;-63
2021/07/12 09:26:47;;;;;;;;;;;39.50;99.90;;;;;;5049027;28;19944;-63
2021/07/12 09:29:16;;;;;;;;;;;39.40;99.90;;;;;;5048564;28;19916;-63
2021/07/12 09:31:42;;;;;;;;;;;40.00;99.90;;;;;;5049303;28;19908;-63
2021/07/12 09:34:08;;;;;;;;;;;41.00;99.90;;;;;;5048552;28;19912;-63
2021/07/12 09:36:34;;;;;;;;;;;41.10;99.90;;;;;;5036826;28;19928;-63
2021/07/12 09:39:18;;;;;;;;;;;40.70;99.90;;;;;;5028863;28;20262;-63
2021/07/12 09:41:48;;;;;;;;;;;40.80;99.90;;;;;;5028992;28;19925;-63
2021/07/12 09:44:13;;;;;;;;;;;39.40;98.00;;;;;;5029263;28;19917;-62
2021/07/12 09:46:39;;;;;;;;;;;38.70;93.50;;;;;;5041112;28;19912;-62
2021/07/12 09:49:08;;;;;;;;;;;38.30;94.70;;;;;;5047552;28;19920;-63
2021/07/12 09:51:34;;;;;;;;;;;38.00;92.00;;;;;;5049157;28;19913;-63
2021/07/12 09:54:22;;;;;;;;;;;38.10;90.30;;;;;;5048897;28;19913;-62
2021/07/12 09:56:48;;;;;;;;;;;37.90;85.40;;;;;;5037820;28;19979;-62
2021/07/12 09:59:15;;;;;;;;;;;36.60;81.80;;;;;;5040765;28;19924;-62
2021/07/12 10:01:44;;;;;;;;;;;36.10;79.50;;;;;;5048568;28;19916;-62
2021/07/12 10:04:10;;;;;;;;;;;36.70;81.70;;;;;;5036191;28;19908;-63
2021/07/12 10:06:36;;;;;;;;;;;37.00;80.10;;;;;;5040526;28;19991;-62
2021/07/12 10:09:02;;;;;;;;;;;37.00;79.80;;;;;;5047789;28;20003;-62
2021/07/12 10:11:28;;;;;;;;;;;36.30;78.30;;;;;;5047848;28;20361;-62
2021/07/12 10:13:53;;;;;;;;;;;36.30;79.00;;;;;;5048878;28;19927;-63
2021/07/12 10:16:19;;;;;;;;;;;36.50;79.20;;;;;;5029189;28;19913;-62
2021/07/12 10:18:45;;;;;;;;;;;36.40;75.30;;;;;;5027702;28;19909;-62
2021/07/12 10:21:11;;;;;;;;;;;35.80;71.90;;;;;;5048597;28;19912;-64
2021/07/12 10:23:37;;;;;;;;;;;34.90;70.10;;;;;;5048771;28;20312;-62
2021/07/12 10:26:03;;;;;;;;;;;34.50;72.10;;;;;;5048211;28;19921;-62
2021/07/12 10:28:39;;;;;;;;;;;34.40;71.30;;;;;;5031532;28;20273;-62
2021/07/12 10:31:17;;;;;;;;;;;34.90;73.20;;;;;;5028663;28;19913;-62
2021/07/12 10:33:43;;;;;;;;;;;35.10;74.90;;;;;;5027797;28;19963;-62
2021/07/12 10:36:08;;;;;;;;;;;35.40;75.90;;;;;;5031730;28;19917;-62
2021/07/12 10:38:43;;;;;;;;;;;35.40;75.40;;;;;;5048138;28;20007;-62
2021/07/12 10:41:15;;;;;;;;;;;35.40;76.60;;;;;;5048416;28;19928;-64
2021/07/12 10:43:41;;;;;;;;;;;35.20;74.90;;;;;;5048822;28;20277;-64
2021/07/12 10:46:06;;;;;;;;;;;35.20;76.40;;;;;;5047947;28;19912;-64
2021/07/12 10:48:36;;;;;;;;;;;35.20;77.40;;;;;;5046612;28;20420;-63
2021/07/12 10:51:15;;;;;;;;;;;35.50;77.70;;;;;;5043397;28;20362;-63
2021/07/12 10:53:41;;;;;;;;;;;35.20;76.00;;;;;;5028316;28;19913;-67
2021/07/12 10:56:08;;;;;;;;;;;35.20;74.50;;;;;;5028392;28;19924;-66
2021/07/12 10:58:35;;;;;;;;;;;34.30;73.40;;;;;;5030106;28;20322;-66
2021/07/12 11:01:03;;;;;;;;;;;34.30;75.70;;;;;;5032949;28;20282;-61
2021/07/12 11:03:50;;;;;;;;;;;34.50;75.30;;;;;;5033167;28;19923;-63
2021/07/12 11:06:17;;;;;;;;;;;34.40;76.70;;;;;;5052515;28;20281;-64
2021/07/12 11:08:42;;;;;;;;;;;33.90;75.80;;;;;;5052288;28;19909;-64
2021/07/12 11:11:08;;;;;;;;;;;34.10;77.10;;;;;;5051653;28;19916;-63
2021/07/12 11:13:52;;;;;;;;;;;34.20;77.70;;;;;;5052459;28;19920;-63
2021/07/12 11:16:22;;;;;;;;;;;33.90;94.00;;;;;;5052054;28;19909;-63
2021/07/12 11:18:48;;;;;;;;;;;34.30;82.90;;;;;;5050066;28;19920;-63
2021/07/12 11:21:16;;;;;;;;;;;34.30;82.70;;;;;;5052070;28;20025;-63
2021/07/12 11:23:42;;;;;;;;;;;33.60;86.60;;;;;;5051788;28;19908;-62
2021/07/12 11:26:30;;;;;;;;;;;33.30;99.90;;;;;;5051960;28;19935;-63
2021/07/12 11:29:01;;;;;;;;;;;32.90;90.40;;;;;;5050835;28;19912;-63
2021/07/12 11:31:40;;;;;;;;;;;32.60;99.90;;;;;;5051425;28;19909;-63
2021/07/12 11:34:06;;;;;;;;;;;32.60;99.90;;;;;;5050756;28;19916;-63
2021/07/12 11:36:31;;;;;;;;;;;32.50;99.90;;;;;;5051636;28;19912;-63
2021/07/12 11:38:57;;;;;;;;;;;32.40;99.90;;;;;;5051155;28;20355;-63
2021/07/12 11:41:23;;;;;;;;;;;32.50;99.90;;;;;;5046635;28;19917;-63
2021/07/12 11:44:07;;;;;;;;;;;32.50;99.90;;;;;;5047574;28;19921;-62
2021/07/12 11:46:32;;;;;;;;;;;32.30;99.90;;;;;;5040520;28;20289;-63
2021/07/12 11:48:58;;;;;;;;;;;;;;;;;;5029241;28;19909;-63
2021/07/12 11:51:24;;;;;;;;;;;32.10;99.90;;;;;;5038358;28;19912;-63
2021/07/12 11:53:49;;;;;;;;;;;31.80;99.90;;;;;;5050989;28;20374;-62
2021/07/12 11:56:18;;;;;;;;;;;31.40;99.90;;;;;;5051339;28;19916;-63
2021/07/12 11:58:53;;;;;;;;;;;30.80;93.10;;;;;;5047005;28;19927;-63
2021/07/12 12:01:19;;;;;;;;;;;30.60;95.50;;;;;;5049062;28;19913;-63
2021/07/12 12:03:45;;;;;;;;;;;30.20;96.40;;;;;;5036789;28;19909;-65
2021/07/12 12:06:11;;;;;;;;;;;29.70;97.80;;;;;;5031452;28;19913;-63
2021/07/12 12:08:36;;;;;;;;;;;29.20;97.60;;;;;;5029512;28;19909;-63
2021/07/12 12:11:02;;;;;;;;;;;28.50;99.90;;;;;;5030677;28;19913;-63
2021/07/12 12:13:29;;;;;;;;;;;28.10;99.90;;;;;;5030766;28;19909;-62
2021/07/12 12:15:54;;;;;;;;;;;27.80;99.90;;;;;;5031284;28;19909;-62
2021/07/12 12:18:27;;;;;;;;;;;27.80;99.90;;;;;;5029444;28;19972;-63
2021/07/12 12:21:03;;;;;;;;;;;27.50;99.90;;;;;;5046841;28;19932;-64
2021/07/12 12:23:30;;;;;;;;;;;27.40;99.90;;;;;;5044153;28;19990;-66
2021/07/12 12:25:56;;;;;;;;;;;27.40;99.90;;;;;;5044882;28;19987;-66
2021/07/12 12:28:31;;;;;;;;;;;27.40;99.90;;;;;;5041621;28;20274;-62
2021/07/12 12:30:59;;;;;;;;;;;27.50;99.90;;;;;;5033194;28;19978;-63
2021/07/12 12:33:26;;;;;;;;;;;27.80;99.90;;;;;;5028406;28;20463;-63
2021/07/12 12:35:58;;;;;;;;;;;27.70;99.90;;;;;;5031212;28;19920;-63
2021/07/12 12:38:24;;;;;;;;;;;27.60;99.90;;;;;;5029514;28;19913;-63
2021/07/12 12:40:55;;;;;;;;;;;27.60;99.90;;;;;;5042850;28;19920;-63
2021/07/12 12:43:22;;;;;;;;;;;27.60;99.90;;;;;;5038519;28;19932;-63
2021/07/12 12:45:52;;;;;;;;;;;27.40;99.90;;;;;;5039872;28;20654;-63
2021/07/12 12:48:37;;;;;;;;;;;27.10;99.90;;;;;;5037884;28;19924;-63
2021/07/12 12:51:21;;;;;;;;;;;27.10;99.90;;;;;;5040582;28;19909;-63
2021/07/12 12:54:06;;;;;;;;;;;27.10;99.90;;;;;;5039584;28;19916;-63
2021/07/12 12:56:32;;;;;;;;;;;27.10;99.90;;;;;;5039647;28;19912;-63
2021/07/12 12:59:02;;;;;;;;;;;27.10;99.90;;;;;;5048123;28;19916;-63
2021/07/12 13:01:29;;;;;;;;;;;27.10;99.90;;;;;;5049826;28;19916;-63
2021/07/12 13:04:11;;;;;;;;;;;27.00;99.90;;;;;;5042399;28;19921;-63
2021/07/12 13:06:37;;;;;;;;;;;27.20;99.90;;;;;;5030323;28;20041;-62
2021/07/12 13:09:03;;;;;;;;;;;27.20;99.90;;;;;;5028663;28;19993;-63
2021/07/12 13:11:28;;;;;;;;;;;27.30;99.90;;;;;;5029163;28;20047;-63
2021/07/12 13:13:57;;;;;;;;;;;27.20;99.90;;;;;;5029337;28;19913;-63
2021/07/12 13:16:25;;;;;;;;;;;27.20;99.90;;;;;;5038441;28;20556;-62
2021/07/12 13:18:51;;;;;;;;;;;27.20;99.90;;;;;;5047200;28;19909;-61
2021/07/12 13:21:16;;;;;;;;;;;27.10;99.90;;;;;;5049096;28;19995;-62
2021/07/12 13:23:45;;;;;;;;;;;27.20;99.90;;;;;;5049593;28;20149;-61
2021/07/12 13:26:12;;;;;;;;;;;27.20;99.90;;;;;;5048849;28;19909;-61
2021/07/12 13:28:38;;;;;;;;;;;27.40;99.90;;;;;;5048761;28;19919;-63
2021/07/12 13:31:04;;;;;;;;;;;27.50;99.90;;;;;;5049592;28;20008;-64
2021/07/12 13:33:30;;;;;;;;;;;27.40;99.90;;;;;;5045880;28;19995;-64
2021/07/12 13:35:56;;;;;;;;;;;27.50;99.90;;;;;;5049834;28;19908;-64
2021/07/12 13:38:22;;;;;;;;;;;27.40;99.90;;;;;;5049172;28;19917;-63
2021/07/12 13:40:48;;;;;;;;;;;27.20;99.90;;;;;;5049378;28;19909;-63
2021/07/12 13:43:14;;;;;;;;;;;26.90;99.90;;;;;;5049958;28;20065;-63
2021/07/12 13:45:40;;;;;;;;;;;26.80;99.90;;;;;;5049845;28;20008;-64
2021/07/12 13:48:06;;;;;;;;;;;26.90;99.90;;;;;;5047193;28;20010;-63
2021/07/12 13:50:31;;;;;;;;;;;27.00;99.90;;;;;;5048831;28;19909;-64
2021/07/12 13:52:58;;;;;;;;;;;27.10;99.90;;;;;;5047761;28;19909;-63
2021/07/12 13:55:24;;;;;;;;;;;27.20;99.90;;;;;;5049618;28;20281;-64
2021/07/12 13:57:51;;;;;;;;;;;27.20;99.90;;;;;;5047548;28;19928;-63
2021/07/12 14:00:17;;;;;;;;;;;27.20;99.90;;;;;;5049428;28;19982;-64
2021/07/12 14:02:43;;;;;;;;;;;27.40;99.90;;;;;;5048081;28;19912;-64
2021/07/12 14:05:10;;;;;;;;;;;27.50;99.90;;;;;;5045896;28;20341;-63
2021/07/12 14:07:36;;;;;;;;;;;27.40;99.90;;;;;;5042462;28;19913;-63
2021/07/12 14:10:02;;;;;;;;;;;27.40;99.90;;;;;;5047619;28;19947;-63
2021/07/12 14:12:28;;;;;;;;;;;27.30;99.90;;;;;;5048256;28;19909;-62
2021/07/12 14:14:54;;;;;;;;;;;27.20;99.90;;;;;;5048656;28;20066;-62
2021/07/12 14:17:19;;;;;;;;;;;27.10;99.90;;;;;;5030972;28;19991;-63
2021/07/12 14:19:45;;;;;;;;;;;27.10;99.90;;;;;;5037005;28;19943;-63
2021/07/12 14:22:11;;;;;;;;;;;27.10;99.90;;;;;;5048598;28;20022;-62
2021/07/12 14:24:36;;;;;;;;;;;27.10;99.90;;;;;;5048962;28;20393;-62
2021/07/12 14:27:03;;;;;;;;;;;27.10;99.90;;;;;;5034956;28;19924;-62